Time;durP1;ratioP1;P1;durP2;ratioP2;P2;SDS_P1;SDS_P2;PMS_P1;PMS_P2;Temp;Humidity;BMP_temperature;BMP_pressure;BME280_temperature;BME280_humidity;BME280_pressure;Samples;Min_cycle;Max_cycle;Signal;HPM_P1;HPM_P2
2024/01/04 00:01:50;;;;;;;18.70;9.00;;;;;;;5.85;70.01;98962.19;123699;1099;104315;-77
2024/01/04 00:04:21;;;;;;;18.77;8.70;;;;;;;5.85;70.16;98970.00;123493;1099;104724;-77
2024/01/04 00:06:53;;;;;;;18.40;8.77;;;;;;;5.85;69.91;98970.00;123672;1099;104245;-77
2024/01/04 00:09:24;;;;;;;18.80;7.60;;;;;;;5.87;70.41;98970.92;123558;1099;104281;-77
2024/01/04 00:11:55;;;;;;;16.43;7.47;;;;;;;5.88;70.07;98972.70;123659;1099;104341;-77
2024/01/04 00:14:26;;;;;;;16.93;6.60;;;;;;;5.90;70.47;98971.01;123714;1099;104268;-77
2024/01/04 00:16:57;;;;;;;15.97;6.83;;;;;;;5.94;70.37;98969.41;123682;1099;104318;-77
2024/01/04 00:19:28;;;;;;;15.80;6.43;;;;;;;5.95;70.38;98973.75;123706;1099;104246;-77
2024/01/04 00:22:00;;;;;;;17.25;7.00;;;;;;;5.97;70.52;98971.23;123498;1099;104257;-77
2024/01/04 00:24:31;;;;;;;14.30;6.23;;;;;;;5.98;70.42;98966.06;123623;1099;104388;-77
2024/01/04 00:27:02;;;;;;;13.60;6.40;;;;;;;6.01;70.55;98966.16;123795;1099;104303;-77
2024/01/04 00:29:33;;;;;;;14.15;6.45;;;;;;;6.03;70.57;98971.41;123716;1099;104267;-77
2024/01/04 00:32:05;;;;;;;13.97;5.93;;;;;;;6.04;70.75;98974.06;123309;1099;104827;-77
2024/01/04 00:34:36;;;;;;;16.37;6.50;;;;;;;6.03;70.77;98972.31;123295;1099;104373;-77
2024/01/04 00:37:07;;;;;;;16.03;7.00;;;;;;;6.03;70.51;98971.41;123852;1099;104329;-77
2024/01/04 00:39:38;;;;;;;12.87;6.27;;;;;;;6.02;70.80;98973.14;123401;1100;104368;-76
2024/01/04 00:42:10;;;;;;;14.13;6.47;;;;;;;6.06;71.03;98966.29;123376;1099;104664;-77
2024/01/04 00:44:41;;;;;;;17.00;6.67;;;;;;;6.09;70.76;98975.09;123725;1099;104232;-77
2024/01/04 00:47:12;;;;;;;16.63;6.43;;;;;;;6.09;70.78;98975.09;123516;1099;104396;-77
2024/01/04 00:49:43;;;;;;;15.17;6.70;;;;;;;6.10;70.84;98973.36;123592;1099;104431;-77
2024/01/04 00:52:14;;;;;;;13.53;6.87;;;;;;;6.09;71.04;98982.91;123721;1098;104274;-77
2024/01/04 00:54:46;;;;;;;15.97;7.33;;;;;;;6.09;70.75;98980.30;123660;1099;104268;-77
2024/01/04 00:57:17;;;;;;;16.45;6.85;;;;;;;6.10;70.91;98978.58;123743;1098;104395;-77
2024/01/04 00:59:48;;;;;;;15.93;7.07;;;;;;;6.10;70.98;98997.67;123713;1098;104319;-76
2024/01/04 01:02:19;;;;;;;15.40;6.90;;;;;;;6.08;70.78;98988.95;123660;1099;104290;-77
2024/01/04 01:04:50;;;;;;;14.67;6.70;;;;;;;6.09;70.91;98988.12;123763;1099;104275;-77
2024/01/04 01:07:22;;;;;;;16.80;7.23;;;;;;;6.10;70.96;98994.20;123686;1099;104300;-77
2024/01/04 01:09:53;;;;;;;18.20;8.50;;;;;;;6.11;71.14;98989.03;123630;1099;104364;-77
2024/01/04 01:12:24;;;;;;;18.37;9.03;;;;;;;6.10;71.10;98986.39;123892;1099;104244;-77
2024/01/04 01:14:55;;;;;;;21.87;10.10;;;;;;;6.08;70.97;98986.34;123614;1099;104415;-77
2024/01/04 01:17:27;;;;;;;22.20;9.85;;;;;;;6.06;71.12;98979.31;123714;1099;104351;-78
2024/01/04 01:19:58;;;;;;;23.63;10.40;;;;;;;6.04;71.01;98978.39;123623;1099;104271;-78
2024/01/04 01:22:29;;;;;;;21.87;9.77;;;;;;;6.03;71.08;98980.13;123883;1099;104245;-78
2024/01/04 01:25:01;;;;;;;22.30;9.87;;;;;;;6.03;70.97;98984.42;123394;1099;104625;-78
2024/01/04 01:27:33;;;;;;;21.47;9.33;;;;;;;6.00;71.27;98992.15;123807;1099;104300;-77
2024/01/04 01:30:04;;;;;;;18.03;8.23;;;;;;;5.96;71.05;98996.36;123402;1099;104291;-77
2024/01/04 01:32:35;;;;;;;17.97;7.57;;;;;;;5.96;70.94;99001.56;123661;1099;104323;-77
2024/01/04 01:35:08;;;;;;;17.60;7.20;;;;;;;5.95;71.21;98999.78;123718;1099;104169;-77
2024/01/04 01:37:39;;;;;;;11.10;5.40;;;;;;;5.94;71.38;99000.64;123953;1099;104301;-76
2024/01/04 01:40:11;;;;;;;11.17;5.13;;;;;;;5.94;71.41;98995.44;123688;1099;104699;-77
2024/01/04 01:42:48;;;;;;;8.83;4.70;;;;;;;5.97;71.37;99003.37;123778;1099;104344;-77
2024/01/04 01:45:21;;;;;;;9.15;4.50;;;;;;;6.02;71.61;99008.72;123465;1099;104644;-77
2024/01/04 01:47:52;;;;;;;7.40;4.00;;;;;;;6.06;71.59;99002.75;123354;1099;104287;-77
2024/01/04 01:50:24;;;;;;;7.77;4.00;;;;;;;6.10;71.67;99002.02;123779;1099;104273;-77
2024/01/04 01:52:56;;;;;;;7.70;3.47;;;;;;;6.11;71.61;99007.27;123646;1099;104246;-77
2024/01/04 01:55:27;;;;;;;8.57;4.00;;;;;;;6.16;71.56;99003.92;123231;1100;104277;-77
2024/01/04 01:58:00;;;;;;;9.00;4.03;;;;;;;6.18;71.99;99007.45;123560;1099;104304;-77
2024/01/04 02:00:32;;;;;;;10.20;4.70;;;;;;;6.19;71.43;98999.68;123248;1102;104354;-77
2024/01/04 02:03:06;;;;;;;12.80;5.70;;;;;;;6.21;71.47;99008.41;123521;1099;105482;-77
2024/01/04 02:05:37;;;;;;;14.03;6.00;;;;;;;6.23;71.75;98998.94;123526;1099;104290;-76
2024/01/04 02:08:09;;;;;;;13.37;5.80;;;;;;;6.25;71.66;98998.98;123532;1099;104704;-76
2024/01/04 02:10:40;;;;;;;12.10;6.07;;;;;;;6.26;71.82;98993.82;123554;1098;104410;-76
2024/01/04 02:13:13;;;;;;;12.60;5.80;;;;;;;6.27;71.82;98992.09;123591;1099;104252;-77
2024/01/04 02:15:44;;;;;;;10.50;5.03;;;;;;;6.27;71.68;98994.69;123283;1099;104226;-77
2024/01/04 02:18:15;;;;;;;9.50;4.57;;;;;;;6.26;71.62;98988.61;123256;1099;104402;-77
2024/01/04 02:20:47;;;;;;;10.93;4.40;;;;;;;6.26;71.85;98996.42;123428;1099;104361;-77
2024/01/04 02:23:20;;;;;;;9.47;4.47;;;;;;;6.24;71.81;98989.39;123326;1099;104313;-77
2024/01/04 02:25:52;;;;;;;6.30;3.90;;;;;;;6.22;71.91;98985.88;123545;1099;104370;-77
2024/01/04 02:28:24;;;;;;;9.23;4.20;;;;;;;6.20;71.87;98983.22;123571;1099;104251;-77
2024/01/04 02:30:55;;;;;;;7.60;3.90;;;;;;;6.19;71.78;98984.05;123281;1099;104338;-77
2024/01/04 02:33:26;;;;;;;7.17;4.13;;;;;;;6.18;72.03;98990.09;123235;1099;104709;-77
2024/01/04 02:35:57;;;;;;;9.87;4.10;;;;;;;6.18;71.67;98999.63;123569;1099;104842;-77
2024/01/04 02:38:28;;;;;;;13.43;5.67;;;;;;;6.17;71.94;98996.16;123590;1099;104297;-77
2024/01/04 02:41:00;;;;;;;13.37;6.13;;;;;;;6.15;71.85;99004.75;123568;1099;104364;-76
2024/01/04 02:43:31;;;;;;;14.03;5.90;;;;;;;6.13;71.82;99007.31;123587;1099;104299;-77
2024/01/04 02:46:02;;;;;;;15.83;7.03;;;;;;;6.11;71.77;99007.27;123391;1099;104312;-77
2024/01/04 02:48:33;;;;;;;11.53;5.40;;;;;;;6.08;71.72;99014.98;123299;1099;104262;-77
2024/01/04 02:51:07;;;;;;;14.50;6.57;;;;;;;6.05;71.88;99007.08;123621;1099;104302;-77
2024/01/04 02:53:38;;;;;;;11.67;6.03;;;;;;;6.02;71.99;99009.59;123696;1099;105444;-77
2024/01/04 02:56:09;;;;;;;14.15;6.50;;;;;;;6.02;71.84;99006.12;123249;1099;104505;-77
2024/01/04 02:58:40;;;;;;;16.27;6.93;;;;;;;6.02;71.67;99006.12;123224;1099;104437;-77
2024/01/04 03:01:11;;;;;;;17.23;7.30;;;;;;;6.01;72.00;99020.84;123565;1099;104281;-77
2024/01/04 03:03:42;;;;;;;14.40;5.90;;;;;;;6.00;72.10;99008.67;123577;1098;104347;-77
2024/01/04 03:06:14;;;;;;;14.77;5.90;;;;;;;6.01;71.90;99018.23;123558;1099;104386;-77
2024/01/04 03:08:45;;;;;;;11.83;5.13;;;;;;;6.02;72.10;99014.80;123627;1099;104730;-78
2024/01/04 03:11:17;;;;;;;11.97;5.40;;;;;;;6.03;71.99;99013.07;123579;1099;104680;-77
2024/01/04 03:13:48;;;;;;;13.50;5.70;;;;;;;6.03;71.93;99013.98;123631;1099;104690;-76
2024/01/04 03:16:21;;;;;;;11.57;5.30;;;;;;;6.03;71.94;99015.67;123713;1099;104290;-78
2024/01/04 03:18:53;;;;;;;11.50;5.17;;;;;;;6.02;72.08;99022.61;123659;1099;104224;-76
2024/01/04 03:21:24;;;;;;;12.07;5.70;;;;;;;6.02;72.27;99022.61;123301;1099;104386;-77
2024/01/04 03:23:55;;;;;;;11.80;5.35;;;;;;;6.03;72.20;99020.88;123625;1099;104274;-77
2024/01/04 03:26:26;;;;;;;13.90;5.77;;;;;;;6.05;72.05;99017.50;123584;1098;104300;-77
2024/01/04 03:28:57;;;;;;;16.03;6.63;;;;;;;6.08;72.23;98994.16;123532;1099;104249;-77
2024/01/04 03:31:29;;;;;;;13.20;5.63;;;;;;;6.13;72.08;98985.61;123329;1099;104365;-77
2024/01/04 03:34:00;;;;;;;15.70;6.40;;;;;;;6.15;72.22;98999.55;123737;1098;104329;-77
2024/01/04 03:36:31;;;;;;;16.20;6.57;;;;;;;6.18;72.24;99004.84;123377;1099;104325;-77
2024/01/04 03:39:02;;;;;;;14.87;6.30;;;;;;;6.19;72.37;99015.30;123745;1099;104310;-77
2024/01/04 03:41:34;;;;;;;10.43;5.20;;;;;;;6.23;72.33;99011.06;123383;1099;104332;-77
2024/01/04 03:44:06;;;;;;;12.13;5.50;;;;;;;6.24;72.21;99013.70;123553;1099;104230;-77
2024/01/04 03:46:37;;;;;;;12.87;5.27;;;;;;;6.25;72.42;99020.70;123472;1099;104401;-78
2024/01/04 03:49:08;;;;;;;9.77;4.40;;;;;;;6.26;72.47;99021.57;123651;1099;104239;-77
2024/01/04 03:51:39;;;;;;;12.57;5.57;;;;;;;6.29;72.40;99013.84;123351;1099;104300;-77
2024/01/04 03:54:11;;;;;;;12.90;5.70;;;;;;;6.30;72.59;99005.20;123761;1098;104305;-78
2024/01/04 03:56:42;;;;;;;13.60;6.00;;;;;;;6.27;72.48;99003.37;123827;1099;104366;-76
2024/01/04 03:59:13;;;;;;;13.93;6.17;;;;;;;6.24;72.52;99000.69;123798;1098;104284;-77
2024/01/04 04:01:48;;;;;;;13.03;6.10;;;;;;;6.20;72.25;99010.97;123658;1099;104271;-76
2024/01/04 04:04:19;;;;;;;15.27;6.67;;;;;;;6.14;72.44;99021.20;123703;1099;104290;-77
2024/01/04 04:06:51;;;;;;;17.20;7.20;;;;;;;6.08;72.42;99021.93;123473;1099;104332;-77
2024/01/04 04:09:22;;;;;;;16.10;7.15;;;;;;;6.03;72.44;99018.28;123655;1099;104650;-78
2024/01/04 04:11:53;;;;;;;18.17;8.13;;;;;;;5.97;72.39;99023.30;123580;1099;104479;-78
2024/01/04 04:14:24;;;;;;;19.53;7.77;;;;;;;5.92;72.28;99030.94;123376;1099;104687;-78
2024/01/04 04:16:55;;;;;;;15.43;7.00;;;;;;;5.84;72.39;99027.22;123692;1099;104275;-79
2024/01/04 04:19:27;;;;;;;18.73;7.43;;;;;;;5.78;72.25;99027.03;123711;1099;104201;-78
2024/01/04 04:21:58;;;;;;;17.17;7.30;;;;;;;5.74;72.46;99015.66;123791;1099;104388;-78
2024/01/04 04:24:30;;;;;;;19.57;7.67;;;;;;;5.74;72.42;99020.86;123765;1099;104328;-77
2024/01/04 04:27:01;;;;;;;16.00;7.40;;;;;;;5.75;72.58;99026.11;123628;1099;104213;-77
2024/01/04 04:29:32;;;;;;;19.80;8.03;;;;;;;5.76;72.45;99019.17;123688;1099;104313;-77
2024/01/04 04:32:04;;;;;;;16.63;7.33;;;;;;;5.75;72.61;99022.63;123765;1099;104945;-77
2024/01/04 04:34:35;;;;;;;17.73;7.97;;;;;;;5.74;72.60;99024.33;123777;1099;104242;-77
2024/01/04 04:37:06;;;;;;;17.37;7.73;;;;;;;5.73;72.45;99026.89;123621;1099;104335;-77
2024/01/04 04:39:37;;;;;;;19.20;8.07;;;;;;;5.70;72.60;99029.39;124103;1099;104258;-77
2024/01/04 04:42:09;;;;;;;20.93;8.00;;;;;;;5.69;72.57;99023.31;123670;1099;104625;-78
2024/01/04 04:44:40;;;;;;;15.20;6.80;;;;;;;5.67;72.61;99017.19;123715;1099;104271;-77
2024/01/04 04:47:11;;;;;;;19.40;7.50;;;;;;;5.68;72.59;99018.06;123620;1099;104258;-77
2024/01/04 04:49:43;;;;;;;15.10;6.80;;;;;;;5.66;72.50;99018.02;123561;1099;104308;-78
2024/01/04 04:52:14;;;;;;;14.50;6.50;;;;;;;5.65;72.86;99024.05;123687;1098;104386;-78
2024/01/04 04:54:45;;;;;;;14.90;7.00;;;;;;;5.68;72.57;99029.34;123557;1099;104271;-78
2024/01/04 04:57:16;;;;;;;15.13;6.70;;;;;;;5.70;72.86;99032.91;123811;1099;104268;-77
2024/01/04 04:59:48;;;;;;;14.20;6.57;;;;;;;5.73;72.90;99033.00;123557;1099;104341;-77
2024/01/04 05:02:22;;;;;;;19.23;7.50;;;;;;;5.78;73.03;99029.63;123841;1099;104316;-77
2024/01/04 05:04:51;;;;;;;;;;;;;;;5.76;73.24;99030.49;123354;1099;104309;-77
2024/01/04 05:07:22;;;;;;;17.83;6.47;;;;;;;5.79;73.10;99018.40;123619;1099;104730;-77
2024/01/04 05:09:54;;;;;;;17.70;7.40;;;;;;;5.80;72.96;99027.95;123643;1099;104233;-77
2024/01/04 05:12:25;;;;;;;18.33;6.87;;;;;;;5.82;73.02;99016.77;123605;1099;104335;-77
2024/01/04 05:14:56;;;;;;;17.10;7.33;;;;;;;5.82;72.96;99015.89;123180;1099;104370;-77
2024/01/04 05:17:27;;;;;;;17.13;6.80;;;;;;;5.80;73.01;99013.24;123368;1102;104326;-77
2024/01/04 05:19:58;;;;;;;15.17;7.20;;;;;;;5.80;73.18;99009.73;123602;1099;104261;-77
2024/01/04 05:22:30;;;;;;;17.93;7.30;;;;;;;5.82;73.15;99014.16;123828;1099;104323;-78
2024/01/04 05:25:02;;;;;;;16.03;7.00;;;;;;;5.82;73.15;99014.16;123765;1099;104325;-77
2024/01/04 05:27:33;;;;;;;13.83;6.47;;;;;;;5.87;73.10;99016.91;123778;1099;104310;-77
2024/01/04 05:30:05;;;;;;;13.87;6.77;;;;;;;5.89;73.14;99020.43;123699;1098;104351;-77
2024/01/04 05:32:38;;;;;;;18.30;7.20;;;;;;;5.89;73.41;99018.73;123742;1099;104344;-78
2024/01/04 05:35:11;;;;;;;15.47;7.03;;;;;;;5.92;73.27;99023.13;123656;1099;104344;-78
2024/01/04 05:37:42;;;;;;;13.32;6.22;;;;;;;5.91;73.35;99029.19;123862;1099;104361;-78
2024/01/04 05:40:14;;;;;;;21.85;8.25;;;;;;;5.92;73.56;99031.84;123867;1099;104373;-78
2024/01/04 05:42:45;;;;;;;16.27;6.93;;;;;;;5.93;73.58;99027.51;124055;1099;104268;-78
2024/01/04 05:45:16;;;;;;;15.93;6.73;;;;;;;5.95;73.13;99033.63;124065;1098;104242;-78
2024/01/04 05:47:47;;;;;;;17.77;6.90;;;;;;;5.98;73.74;99038.97;124213;1099;104193;-78
2024/01/04 05:50:18;;;;;;;16.90;7.13;;;;;;;6.02;73.56;99047.78;124121;1099;104195;-77
2024/01/04 05:52:50;;;;;;;14.03;6.83;;;;;;;6.05;73.63;99045.27;124081;1099;104274;-76
2024/01/04 05:55:21;;;;;;;13.93;5.80;;;;;;;6.12;73.75;99052.41;124098;1099;104169;-77
2024/01/04 05:57:52;;;;;;;11.43;5.27;;;;;;;6.19;73.69;99046.56;124082;1099;104315;-76
2024/01/04 06:00:23;;;;;;;13.43;5.50;;;;;;;6.26;74.04;99043.31;123832;1099;104255;-78
2024/01/04 06:02:54;;;;;;;9.33;4.60;;;;;;;6.37;73.84;99042.72;124029;1099;106394;-77
2024/01/04 06:05:26;;;;;;;8.80;4.00;;;;;;;6.51;74.34;99043.13;123886;1099;104380;-77
2024/01/04 06:07:58;;;;;;;7.70;3.75;;;;;;;6.63;74.25;99039.13;124078;1099;104341;-77
2024/01/04 06:10:29;;;;;;;5.97;3.70;;;;;;;6.78;74.54;99043.91;124316;1099;104265;-78
2024/01/04 06:13:00;;;;;;;7.83;3.43;;;;;;;6.89;74.34;99031.16;124348;1099;104216;-77
2024/01/04 06:15:31;;;;;;;7.93;3.40;;;;;;;7.00;74.19;99037.53;123883;1099;104272;-77
2024/01/04 06:18:02;;;;;;;7.50;3.77;;;;;;;7.11;74.26;99045.64;124298;1099;104357;-77
2024/01/04 06:20:33;;;;;;;5.40;3.47;;;;;;;7.20;74.12;99042.41;124649;1099;104035;-77
2024/01/04 06:23:05;;;;;;;4.67;3.00;;;;;;;7.30;74.45;99035.69;124333;1099;104271;-77
2024/01/04 06:25:36;;;;;;;6.10;3.60;;;;;;;7.36;74.03;99025.40;124441;1099;104197;-78
2024/01/04 06:28:08;;;;;;;5.87;3.53;;;;;;;7.44;74.32;99028.20;124505;1098;104717;-77
2024/01/04 06:30:39;;;;;;;6.63;3.70;;;;;;;7.49;74.28;99017.01;124443;1099;104342;-77
2024/01/04 06:33:10;;;;;;;6.30;2.90;;;;;;;7.59;74.34;99022.45;124309;1098;104274;-79
2024/01/04 06:35:42;;;;;;;7.60;3.50;;;;;;;7.65;74.45;99027.82;124449;1099;104291;-78
2024/01/04 06:38:13;;;;;;;6.03;3.10;;;;;;;7.72;74.09;99025.39;124666;1098;104130;-77
2024/01/04 06:40:44;;;;;;;4.50;3.13;;;;;;;7.79;74.27;99031.66;124241;1099;104278;-77
2024/01/04 06:43:15;;;;;;;5.60;3.20;;;;;;;7.85;73.77;99029.20;124586;1099;104287;-78
2024/01/04 06:45:46;;;;;;;7.43;3.73;;;;;;;7.91;73.68;99034.53;124397;1097;104746;-77
2024/01/04 06:48:18;;;;;;;8.17;3.63;;;;;;;7.97;73.86;99038.15;124856;1099;104245;-77
2024/01/04 06:50:49;;;;;;;4.83;3.17;;;;;;;8.01;74.25;99039.95;124084;1099;104299;-77
2024/01/04 06:53:20;;;;;;;7.00;3.23;;;;;;;8.06;74.18;99038.36;124281;1099;104252;-77
2024/01/04 06:55:51;;;;;;;6.23;3.47;;;;;;;8.12;73.55;99038.50;124073;1099;104300;-77
2024/01/04 06:58:23;;;;;;;17.43;6.23;;;;;;;8.19;73.58;99035.14;124790;1099;104175;-78
2024/01/04 07:00:56;;;;;;;14.30;5.30;;;;;;;8.22;73.46;99031.73;116060;1099;10001299;-77
2024/01/04 07:06:21;;;;;;;;;;;;;;;8.32;73.73;99041.55;124879;1099;103094;-76
2024/01/04 07:08:53;;;;;;;6.50;3.23;;;;;;;8.35;73.72;99045.93;124657;1099;104206;-76
2024/01/04 07:11:27;;;;;;;8.77;3.70;;;;;;;8.40;73.96;99052.16;124744;1099;103431;-77
2024/01/04 07:13:59;;;;;;;7.73;3.87;;;;;;;8.41;73.42;99049.58;124830;1099;102791;-76
2024/01/04 07:16:30;;;;;;;8.93;3.63;;;;;;;8.44;73.12;99047.03;124817;1099;104166;-76
2024/01/04 07:19:01;;;;;;;7.33;3.90;;;;;;;8.49;73.41;99051.48;124783;1099;103056;-76
2024/01/04 07:21:33;;;;;;;5.75;3.40;;;;;;;8.53;73.47;99054.20;124995;1099;104160;-76
2024/01/04 07:24:05;;;;;;;8.57;3.60;;;;;;;8.55;73.39;99046.38;124734;1099;102428;-75
2024/01/04 07:26:37;;;;;;;9.73;3.70;;;;;;;8.58;73.66;99046.45;124727;1099;101939;-76
2024/01/04 07:29:11;;;;;;;6.20;3.30;;;;;;;8.61;73.40;99049.13;124782;1099;104277;-76
2024/01/04 07:31:47;;;;;;;6.03;3.40;;;;;;;8.66;73.56;99054.45;124207;1099;104133;-76
2024/01/04 07:34:19;;;;;;;7.27;3.93;;;;;;;8.71;73.64;99063.26;124728;1099;104223;-76
2024/01/04 07:36:55;;;;;;;6.80;3.77;;;;;;;8.75;73.06;99065.09;124808;1099;103122;-76
2024/01/04 07:39:26;;;;;;;6.70;4.10;;;;;;;8.79;73.16;99061.70;124908;1099;103630;-76
2024/01/04 07:42:00;;;;;;;7.05;4.00;;;;;;;8.83;72.72;99058.27;124720;1099;104309;-76
2024/01/04 07:44:31;;;;;;;8.83;4.00;;;;;;;8.87;73.28;99046.16;124241;1099;104229;-76
2024/01/04 07:47:04;;;;;;;9.30;4.27;;;;;;;8.91;72.85;99048.86;124757;1099;104173;-76
2024/01/04 07:49:42;;;;;;;8.63;4.40;;;;;;;8.97;73.35;99043.72;124738;1099;102924;-77
2024/01/04 07:52:16;;;;;;;8.87;4.00;;;;;;;9.02;73.24;99043.80;124676;1099;104253;-76
2024/01/04 07:54:47;;;;;;;9.57;4.33;;;;;;;9.06;73.16;99050.86;124485;1099;104617;-76
2024/01/04 07:57:19;;;;;;;9.57;4.00;;;;;;;9.11;72.92;99045.72;124586;1099;104207;-76
2024/01/04 07:59:50;;;;;;;8.47;3.80;;;;;;;9.16;73.09;99044.05;124787;1099;104284;-76
2024/01/04 08:02:21;;;;;;;7.57;3.97;;;;;;;9.21;72.72;99047.66;124808;1099;104701;-76
2024/01/04 08:04:53;;;;;;;18.13;5.03;;;;;;;9.24;72.84;99047.72;124811;1099;104210;-76
2024/01/04 08:07:26;;;;;;;18.87;5.60;;;;;;;9.27;72.70;99046.86;124667;1099;104320;-76
2024/01/04 08:10:00;;;;;;;18.60;6.57;;;;;;;9.29;72.67;99046.05;124653;1099;104251;-77
2024/01/04 08:12:32;;;;;;;24.20;7.80;;;;;;;9.31;72.72;99046.95;124806;1099;104201;-76
2024/01/04 08:15:05;;;;;;;30.50;10.03;;;;;;;9.31;71.82;99039.09;124345;1099;104213;-76
2024/01/04 08:17:36;;;;;;;23.90;8.20;;;;;;;9.34;72.48;99044.38;124926;1099;104184;-76
2024/01/04 08:20:09;;;;;;;17.63;6.47;;;;;;;9.39;72.31;99036.61;124881;1099;104065;-76
2024/01/04 08:22:51;;;;;;;19.23;8.17;;;;;;;9.43;72.24;99035.81;126931;1099;102644;-76
2024/01/04 08:25:24;;;;;;;13.70;6.40;;;;;;;9.47;71.92;99024.55;126942;1098;102508;-77
2024/01/04 08:28:08;;;;;;;15.10;5.80;;;;;;;9.53;72.44;99021.12;126309;1099;102593;-77
2024/01/04 08:30:40;;;;;;;12.63;4.63;;;;;;;9.61;71.64;99027.36;126944;1098;102849;-77
2024/01/04 08:33:13;;;;;;;8.33;4.00;;;;;;;9.65;71.82;99023.95;127117;1098;102517;-76
2024/01/04 08:35:47;;;;;;;11.50;3.93;;;;;;;9.74;72.28;99022.31;125342;1099;104264;-76
2024/01/04 08:38:18;;;;;;;;;;;;;;;9.78;71.47;99018.90;124831;1099;104190;-77
2024/01/04 08:40:51;;;;;;;5.37;3.17;;;;;;;9.83;71.75;99015.50;124793;1099;104619;-76
2024/01/04 08:43:22;;;;;;;5.00;3.23;;;;;;;9.88;72.12;99010.33;124993;1099;104249;-76
2024/01/04 08:45:54;;;;;;;5.60;3.40;;;;;;;9.96;72.09;99015.69;124959;1099;103369;-76
2024/01/04 08:48:31;;;;;;;8.77;3.70;;;;;;;10.08;71.96;99006.25;124764;1099;104415;-76
2024/01/04 08:51:03;;;;;;;8.00;3.53;;;;;;;10.23;71.21;99013.41;124880;1099;102922;-77
2024/01/04 08:53:36;;;;;;;8.63;3.53;;;;;;;10.39;71.14;99009.30;125392;1098;102515;-76
2024/01/04 08:56:13;;;;;;;7.20;3.53;;;;;;;10.55;71.18;98998.97;125032;1099;102717;-77
2024/01/04 08:58:47;;;;;;;10.00;3.33;;;;;;;10.67;71.13;98988.63;125556;1098;103724;-77
2024/01/04 09:01:19;;;;;;;7.87;3.33;;;;;;;10.72;70.76;98984.33;125528;1098;102834;-77
2024/01/04 09:03:52;;;;;;;7.77;3.10;;;;;;;10.69;70.48;98986.92;125568;1098;102585;-78
2024/01/04 09:06:24;;;;;;;8.68;3.15;;;;;;;10.74;70.75;98985.22;125562;1098;103081;-77
2024/01/04 09:08:56;;;;;;;8.37;3.83;;;;;;;10.90;70.81;98975.75;125534;1098;103523;-76
2024/01/04 09:11:29;;;;;;;7.70;4.10;;;;;;;11.07;70.69;98981.16;125139;1098;104291;-76
2024/01/04 09:14:05;;;;;;;7.37;3.27;;;;;;;11.23;70.48;98978.67;124655;1099;104329;-76
2024/01/04 09:16:36;;;;;;;11.83;3.67;;;;;;;11.37;70.62;98968.30;124277;1099;104457;-77
2024/01/04 09:19:08;;;;;;;10.53;3.53;;;;;;;11.49;70.27;98974.52;124475;1099;104674;-76
2024/01/04 09:21:39;;;;;;;6.60;3.50;;;;;;;11.64;69.24;98964.97;124621;1099;102473;-77
2024/01/04 09:24:12;;;;;;;8.73;3.60;;;;;;;11.78;70.10;98968.59;124716;1098;104245;-76
2024/01/04 09:26:44;;;;;;;8.13;3.63;;;;;;;11.91;69.72;98963.41;124140;1099;104382;-76
2024/01/04 09:29:17;;;;;;;9.40;3.90;;;;;;;11.98;69.81;98957.33;124565;1099;104272;-76
2024/01/04 09:31:49;;;;;;;10.00;3.70;;;;;;;12.08;68.82;98953.02;124863;1099;103105;-77
2024/01/04 09:34:21;;;;;;;9.50;3.70;;;;;;;12.17;69.22;98950.41;124500;1099;104239;-76
2024/01/04 09:36:54;;;;;;;8.93;3.70;;;;;;;12.21;69.02;98950.42;124121;1099;104295;-77
2024/01/04 09:39:25;;;;;;;11.97;3.40;;;;;;;12.26;68.78;98941.69;124673;1099;103114;-77
2024/01/04 09:41:57;;;;;;;6.77;3.43;;;;;;;12.29;68.73;98946.96;124717;1099;104245;-76
2024/01/04 09:44:34;;;;;;;9.20;3.50;;;;;;;12.36;68.79;98944.36;124347;1099;104223;-77
2024/01/04 09:47:10;;;;;;;8.30;3.50;;;;;;;12.43;68.47;98942.63;124947;1099;104299;-76
2024/01/04 09:49:46;;;;;;;9.47;3.37;;;;;;;12.49;68.36;98939.14;124337;1099;104168;-77
2024/01/04 09:52:18;;;;;;;9.57;3.20;;;;;;;12.52;68.41;98941.78;124764;1099;102548;-76
2024/01/04 09:54:52;;;;;;;7.30;3.10;;;;;;;12.55;68.45;98944.42;126023;1098;104313;-76
2024/01/04 09:57:24;;;;;;;9.25;3.60;;;;;;;12.55;67.25;98936.53;124676;1098;104316;-77
2024/01/04 09:59:55;;;;;;;10.97;3.87;;;;;;;12.54;67.71;98940.02;124776;1099;104169;-76
2024/01/04 10:02:26;;;;;;;10.43;3.37;;;;;;;12.59;67.39;98939.17;124810;1099;104380;-76
2024/01/04 10:05:01;;;;;;;9.50;3.53;;;;;;;12.69;66.83;98939.20;124954;1099;104348;-76
2024/01/04 10:07:37;;;;;;;11.87;3.50;;;;;;;12.79;66.61;98933.05;124918;1098;102998;-78
2024/01/04 10:10:18;;;;;;;8.13;3.33;;;;;;;12.91;66.29;98927.81;124502;1099;104195;-76
2024/01/04 10:12:51;;;;;;;10.27;3.87;;;;;;;13.06;66.48;98929.59;125150;1099;104195;-78
2024/01/04 10:15:22;;;;;;;7.90;3.15;;;;;;;13.16;66.15;98919.92;125148;1099;102872;-76
2024/01/04 10:18:02;;;;;;;8.00;3.03;;;;;;;13.26;66.18;98916.42;124897;1098;104248;-76
2024/01/04 10:20:34;;;;;;;8.90;3.00;;;;;;;13.36;65.34;98912.05;124458;1099;104265;-77
2024/01/04 10:23:11;;;;;;;11.73;3.53;;;;;;;13.44;65.42;98910.27;124595;1099;104223;-77
2024/01/04 10:25:47;;;;;;;5.57;3.20;;;;;;;13.53;65.45;98911.16;124469;1099;102567;-76
2024/01/04 10:28:24;;;;;;;8.30;3.70;;;;;;;13.60;65.37;98897.97;124261;1099;104363;-77
2024/01/04 10:30:58;;;;;;;13.85;3.50;;;;;;;13.65;65.33;98890.06;124548;1099;104309;-76
2024/01/04 10:33:30;;;;;;;6.73;3.40;;;;;;;13.72;64.42;98890.91;124529;1099;104264;-76
2024/01/04 10:36:11;;;;;;;8.47;3.60;;;;;;;13.84;64.49;98882.97;124837;1098;104159;-76
2024/01/04 10:38:43;;;;;;;8.23;3.37;;;;;;;13.99;64.33;98866.19;125713;1098;104242;-76
2024/01/04 10:41:17;;;;;;;8.90;2.97;;;;;;;14.10;64.00;98871.42;124586;1099;104242;-75
2024/01/04 10:43:48;;;;;;;9.27;3.10;;;;;;;14.17;63.02;98866.11;125026;1098;104344;-76
2024/01/04 10:46:26;;;;;;;7.10;3.20;;;;;;;14.28;63.15;98862.55;125105;1099;104197;-78
2024/01/04 10:48:59;;;;;;;7.43;3.43;;;;;;;14.38;63.79;98862.48;124806;1099;104175;-77
2024/01/04 10:51:32;;;;;;;5.10;3.20;;;;;;;14.48;63.30;98851.88;124676;1099;104169;-77
2024/01/04 10:54:04;;;;;;;10.70;3.58;;;;;;;14.53;62.57;98856.22;125257;1099;102322;-76
2024/01/04 10:56:36;;;;;;;5.50;2.90;;;;;;;14.57;62.50;98851.82;124849;1099;104328;-77
2024/01/04 10:59:09;;;;;;;8.43;3.43;;;;;;;14.56;62.08;98858.84;125218;1099;104203;-76
2024/01/04 11:01:43;;;;;;;8.20;4.00;;;;;;;14.54;61.78;98854.48;124507;1102;104402;-77
2024/01/04 11:04:15;;;;;;;10.30;3.63;;;;;;;14.50;61.97;98852.73;126881;1099;102388;-77
2024/01/04 11:06:47;;;;;;;11.93;3.97;;;;;;;14.46;61.92;98845.71;126889;1098;102500;-77
2024/01/04 11:09:23;;;;;;;16.57;4.43;;;;;;;14.39;61.13;98845.75;125434;1099;103665;-77
2024/01/04 11:11:58;;;;;;;8.47;3.40;;;;;;;14.32;61.82;98843.16;124572;1099;104307;-77
2024/01/04 11:14:31;;;;;;;7.73;3.80;;;;;;;14.27;60.66;98840.55;125090;1099;105469;-76
2024/01/04 11:17:18;;;;;;;7.93;3.93;;;;;;;14.25;61.41;98841.45;125004;1099;104245;-77
2024/01/04 11:20:10;;;;;;;10.87;3.70;;;;;;;14.24;60.56;98835.28;124536;1099;103261;-77
2024/01/04 11:23:08;;;;;;;7.73;3.53;;;;;;;14.23;60.11;98837.93;124800;1099;104351;-77
2024/01/04 11:25:59;;;;;;;10.20;4.00;;;;;;;14.22;61.09;98826.52;124970;1099;104319;-77
2024/01/04 11:28:33;;;;;;;10.40;4.03;;;;;;;14.20;60.06;98830.94;125119;1099;104185;-76
2024/01/04 11:31:05;;;;;;;8.75;3.75;;;;;;;14.19;60.01;98831.81;124895;1099;104179;-77
2024/01/04 11:33:40;;;;;;;8.43;4.00;;;;;;;14.18;60.91;98835.35;125110;1099;104312;-76
2024/01/04 11:36:18;;;;;;;10.27;4.10;;;;;;;14.16;60.62;98831.83;124815;1099;107123;-76
2024/01/04 11:38:51;;;;;;;8.23;3.83;;;;;;;14.15;59.93;98830.09;124807;1099;104165;-76
2024/01/04 11:41:34;;;;;;;9.97;4.00;;;;;;;14.16;59.68;98837.10;124761;1099;104236;-76
2024/01/04 11:44:15;;;;;;;11.13;4.03;;;;;;;14.17;60.59;98834.45;125359;1099;102997;-76
2024/01/04 11:46:47;;;;;;;11.00;3.90;;;;;;;14.20;60.45;98833.57;124768;1099;104203;-77